createdAt,value
2023-04-12T00:02:46.723Z,50
2023-04-12T00:07:53.006Z,50
2023-04-12T00:12:59.457Z,50
2023-04-12T00:18:05.815Z,49.5
2023-04-12T00:23:12.229Z,50
2023-04-12T00:28:18.684Z,50
2023-04-12T00:33:25.044Z,49.5
2023-04-12T00:38:31.518Z,49.5
2023-04-12T00:43:37.872Z,49.5
2023-04-12T00:48:44.325Z,49.5
2023-04-12T00:53:50.869Z,49.5
2023-04-12T00:58:57.145Z,49.5
2023-04-12T01:04:03.531Z,49.5
2023-04-12T01:09:09.950Z,49.5
2023-04-12T01:14:16.529Z,49.5
2023-04-12T01:19:22.789Z,49.5
2023-04-12T01:24:29.245Z,49.5
2023-04-12T01:29:35.618Z,49.5
2023-04-12T01:34:42.027Z,49.5
2023-04-12T01:39:48.431Z,49.5
2023-04-12T01:44:54.940Z,49.5
2023-04-12T01:50:01.266Z,49.5
2023-04-12T01:55:07.677Z,49.5
2023-04-12T02:00:14.105Z,49.5
2023-04-12T02:05:20.490Z,49.5
2023-04-12T02:10:26.902Z,49.5
2023-04-12T02:15:33.406Z,49.5
2023-04-12T02:20:39.735Z,49.5
2023-04-12T02:25:46.282Z,49.5
2023-04-12T02:30:52.568Z,49.5
2023-04-12T02:35:59.017Z,49.5
2023-04-12T02:41:05.403Z,49.5
2023-04-12T02:46:11.808Z,49.5
2023-04-12T02:51:18.239Z,49.5
2023-04-12T02:56:24.688Z,49.5
2023-04-12T03:01:31.053Z,49.5
2023-04-12T03:06:37.524Z,49.5
2023-04-12T03:11:43.877Z,49.5
2023-04-12T03:16:50.326Z,49.5
2023-04-12T03:21:56.698Z,49
2023-04-12T03:27:03.112Z,49
2023-04-12T03:32:09.533Z,49
2023-04-12T03:37:15.938Z,49
2023-04-12T03:42:22.399Z,49
2023-04-12T03:47:28.773Z,49
2023-04-12T03:52:35.379Z,49
2023-04-12T03:57:41.629Z,49
2023-04-12T04:02:48.057Z,49
2023-04-12T04:07:54.422Z,49
2023-04-12T04:13:00.700Z,49
2023-04-12T04:18:07.024Z,49
2023-04-12T04:23:13.326Z,49
2023-04-12T04:28:19.621Z,49
2023-04-12T04:33:25.923Z,49
2023-04-12T04:38:32.234Z,49
2023-04-12T04:43:38.544Z,49
2023-04-12T04:48:44.850Z,49
2023-04-12T04:53:51.183Z,49
2023-04-12T04:58:57.463Z,49
2023-04-12T05:04:03.775Z,49
2023-04-12T05:09:10.141Z,49
2023-04-12T05:14:16.373Z,48.5
2023-04-12T05:19:22.711Z,48.5
2023-04-12T05:24:29.026Z,48.5
2023-04-12T05:29:35.290Z,48.5
2023-04-12T05:34:41.589Z,48
2023-04-12T05:39:47.923Z,48
2023-04-12T05:44:54.225Z,48
2023-04-12T05:50:00.522Z,48
2023-04-12T05:55:06.827Z,47.5
2023-04-12T06:00:13.244Z,47.5
2023-04-12T06:05:19.496Z,47.5
2023-04-12T06:10:25.745Z,48
2023-04-12T06:15:32.207Z,42.5
2023-04-12T06:20:38.430Z,48.5
2023-04-12T06:25:44.700Z,48.5
2023-04-12T06:30:51.126Z,47.5
2023-04-12T06:35:57.279Z,47.5
2023-04-12T06:41:03.579Z,46.5
2023-04-12T06:46:10.020Z,46
2023-04-12T06:51:16.239Z,46
2023-04-12T06:56:22.497Z,46
2023-04-12T07:01:28.892Z,45
2023-04-12T07:06:35.138Z,44.5
2023-04-12T07:11:41.416Z,44
2023-04-12T07:16:47.733Z,43.5
2023-04-12T07:21:54.082Z,43.5
2023-04-12T07:27:00.379Z,43.5
2023-04-12T07:32:06.645Z,44
